Time;durP1;ratioP1;P1;durP2;ratioP2;P2;SDS_P1;SDS_P2;PMS_P1;PMS_P2;Temp;Humidity;BMP_temperature;BMP_pressure;BME280_temperature;BME280_humidity;BME280_pressure;Samples;Min_cycle;Max_cycle;Signal;HPM_P1;HPM_P2
2023/01/27 00:01:26;;;;;;;125.35;52.15;;;;;;;1.44;100.00;99899.06;5114442;28;20149;-73
2023/01/27 00:03:51;;;;;;;108.38;48.33;;;;;;;1.57;100.00;99894.69;5114615;27;20095;-73
2023/01/27 00:06:16;;;;;;;113.88;47.72;;;;;;;1.64;100.00;99891.19;5114351;28;20103;-73
2023/01/27 00:08:41;;;;;;;95.72;42.95;;;;;;;1.59;100.00;99894.66;5114708;28;20024;-73
2023/01/27 00:13:50;;;;;;;107.22;46.75;;;;;;;1.49;100.00;99914.41;5114376;28;20035;-73
2023/01/27 00:16:16;;;;;;;93.30;42.45;;;;;;;1.60;100.00;99922.03;5114351;28;20383;-73
2023/01/27 00:18:41;;;;;;;118.68;48.78;;;;;;;1.46;100.00;99920.41;5114046;28;20020;-73
2023/01/27 00:26:34;;;;;;;126.95;53.50;;;;;;;1.47;100.00;99926.38;5113902;28;20054;-73
2023/01/27 00:28:59;;;;;;;108.05;47.20;;;;;;;1.59;100.00;99923.75;5114079;28;20024;-73
2023/01/27 00:34:09;;;;;;;433.50;154.55;;;;;;;1.22;100.00;99905.13;5114215;28;20055;-73
2023/01/27 00:36:39;;;;;;;457.02;132.20;;;;;;;1.37;100.00;99912.75;5113947;28;20039;-73
2023/01/27 00:39:06;;;;;;;133.25;51.53;;;;;;;1.43;100.00;99904.16;5113972;28;20352;-73
2023/01/27 00:41:32;;;;;;;87.88;40.40;;;;;;;1.24;100.00;99875.19;5113636;28;20110;-73
2023/01/27 00:43:58;;;;;;;147.70;56.53;;;;;;;1.36;100.00;99923.91;5113869;28;20157;-73
2023/01/27 00:46:24;;;;;;;145.85;53.42;;;;;;;1.42;100.00;99923.84;5113607;28;20114;-73
2023/01/27 00:48:53;;;;;;;101.60;42.05;;;;;;;1.49;100.00;99915.28;5113864;28;20031;-73
2023/01/27 00:51:19;;;;;;;103.68;45.83;;;;;;;1.52;100.00;99936.63;5113652;28;20023;-73
2023/01/27 00:53:45;;;;;;;104.63;44.95;;;;;;;1.47;100.00;99919.53;5113431;28;20372;-73
2023/01/27 00:56:11;;;;;;;89.53;41.85;;;;;;;1.23;100.00;99940.22;5113508;28;20039;-73
2023/01/27 00:58:36;;;;;;;101.72;43.35;;;;;;;1.07;100.00;99930.88;5113854;28;20027;-73
2023/01/27 01:01:05;;;;;;;105.53;44.58;;;;;;;1.23;100.00;99924.81;5113174;28;20031;-73
2023/01/27 01:03:32;;;;;;;80.05;37.58;;;;;;;1.22;100.00;99944.50;5113299;28;20047;-73
2023/01/27 01:06:01;;;;;;;88.55;38.38;;;;;;;1.37;100.00;99930.72;5113352;28;20032;-73
2023/01/27 01:08:27;;;;;;;86.25;39.42;;;;;;;1.43;100.00;99951.25;5113127;28;20103;-73
2023/01/27 01:10:53;;;;;;;86.25;40.70;;;;;;;1.19;100.00;99933.38;5113214;28;20547;-73
2023/01/27 01:13:18;;;;;;;92.72;41.50;;;;;;;1.36;100.00;99931.59;5113371;28;20031;-73
2023/01/27 01:15:44;;;;;;;97.15;42.03;;;;;;;1.23;100.00;99917.13;5113285;28;20463;-73
2023/01/27 01:18:09;;;;;;;86.03;39.40;;;;;;;1.52;100.00;99944.34;5113821;28;20051;-73
2023/01/27 01:20:37;;;;;;;86.78;38.00;;;;;;;1.45;100.00;99948.66;5111603;28;20024;-73
2023/01/27 01:23:04;;;;;;;79.05;37.90;;;;;;;1.47;100.00;99916.97;5113246;28;20091;-73
2023/01/27 01:25:29;;;;;;;80.22;37.30;;;;;;;1.35;100.00;99924.75;5112605;28;20023;-73
2023/01/27 01:27:54;;;;;;;81.75;37.75;;;;;;;1.65;100.00;99946.00;5112955;28;20034;-73
2023/01/27 01:30:20;;;;;;;83.72;37.00;;;;;;;1.46;100.00;99922.13;5113071;28;20020;-73
2023/01/27 01:32:46;;;;;;;85.30;39.40;;;;;;;1.43;100.00;99948.69;5112752;28;20027;-73
2023/01/27 01:35:12;;;;;;;84.45;36.80;;;;;;;1.22;100.00;99925.66;5112935;28;20413;-72
2023/01/27 01:37:37;;;;;;;71.38;34.53;;;;;;;1.53;100.00;99943.50;5112557;28;20038;-73
2023/01/27 01:40:03;;;;;;;78.88;36.85;;;;;;;1.58;100.00;99944.31;5112749;28;20058;-72
2023/01/27 01:42:46;;;;;;;81.68;36.97;;;;;;;1.64;100.00;99937.41;5112971;28;20019;-73
2023/01/27 01:45:30;;;;;;;81.07;37.15;;;;;;;1.74;100.00;99946.78;5112768;28;20043;-72
2023/01/27 01:48:07;;;;;;;77.32;34.70;;;;;;;1.36;100.00;99952.13;5113099;28;20035;-72
2023/01/27 01:50:35;;;;;;;77.78;35.95;;;;;;;1.37;100.00;99941.00;5112506;28;20414;-72
2023/01/27 01:53:03;;;;;;;79.95;35.42;;;;;;;1.40;100.00;99917.88;5112855;28;20024;-72
2023/01/27 01:55:30;;;;;;;82.05;36.25;;;;;;;1.46;100.00;99917.84;5112497;28;20027;-73
2023/01/27 01:57:56;;;;;;;90.10;37.92;;;;;;;1.53;100.00;99930.66;5112506;28;20058;-72
2023/01/27 02:00:21;;;;;;;88.05;38.38;;;;;;;1.71;100.00;99949.38;5112439;28;20427;-72
2023/01/27 02:02:49;;;;;;;90.05;38.58;;;;;;;1.54;100.00;99945.19;5112391;28;20446;-72
2023/01/27 02:05:23;;;;;;;83.82;38.15;;;;;;;1.54;100.00;99952.91;5112544;28;20505;-72
2023/01/27 02:08:11;;;;;;;91.95;41.67;;;;;;;1.28;100.00;99924.78;5112303;28;20038;-72
2023/01/27 02:10:37;;;;;;;97.32;41.42;;;;;;;1.54;100.00;99942.63;5112047;28;20080;-72
2023/01/27 02:13:03;;;;;;;97.60;42.90;;;;;;;1.63;100.00;99960.53;5112324;28;20425;-72
2023/01/27 02:15:30;;;;;;;98.72;40.42;;;;;;;1.49;100.00;99945.22;5111956;28;20079;-72
2023/01/27 02:17:56;;;;;;;93.75;41.58;;;;;;;1.45;100.00;99928.13;5112449;28;20506;-72
2023/01/27 02:20:31;;;;;;;103.20;42.55;;;;;;;1.54;100.00;99956.31;5112746;28;20118;-72
2023/01/27 02:23:21;;;;;;;93.68;41.20;;;;;;;1.22;100.00;99951.31;5112116;28;20606;-73
2023/01/27 02:25:49;;;;;;;91.35;40.67;;;;;;;1.21;100.00;99931.66;5111807;28;20023;-72
2023/01/27 02:28:15;;;;;;;92.30;41.35;;;;;;;1.28;100.00;99923.06;5112356;28;20031;-72
2023/01/27 02:30:40;;;;;;;89.55;40.83;;;;;;;1.32;100.00;99962.41;5112111;28;20043;-72
2023/01/27 02:33:11;;;;;;;93.18;41.88;;;;;;;1.14;100.00;99968.47;5112253;28;20059;-72
2023/01/27 02:35:50;;;;;;;92.72;40.97;;;;;;;1.14;100.00;99963.34;5111948;28;20118;-72
2023/01/27 02:38:17;;;;;;;98.97;40.95;;;;;;;1.24;100.00;99937.63;5112014;28;20028;-72
2023/01/27 02:40:45;;;;;;;98.68;41.05;;;;;;;1.08;100.00;99946.25;5112001;28;20032;-72
2023/01/27 02:43:10;;;;;;;96.63;40.97;;;;;;;1.40;100.00;99958.09;5112418;28;20496;-72
2023/01/27 02:45:35;;;;;;;92.63;40.85;;;;;;;1.46;100.00;99961.47;5111921;28;20031;-73
2023/01/27 02:48:02;;;;;;;95.05;40.80;;;;;;;1.46;100.00;99961.47;5112163;28;20023;-73
2023/01/27 02:50:27;;;;;;;80.18;38.47;;;;;;;1.29;100.00;99944.47;5111971;28;20547;-72
2023/01/27 02:52:52;;;;;;;105.03;44.40;;;;;;;1.30;100.00;99939.31;5111610;28;20016;-72
2023/01/27 02:55:18;;;;;;;99.70;42.22;;;;;;;1.35;100.00;99967.50;5112332;28;20039;-72
2023/01/27 02:57:43;;;;;;;92.22;41.47;;;;;;;1.22;100.00;99938.47;5112170;28;20027;-72
2023/01/27 03:00:12;;;;;;;80.45;36.63;;;;;;;1.07;100.00;99938.56;5111944;28;20034;-73
2023/01/27 03:02:37;;;;;;;84.15;38.25;;;;;;;1.19;100.00;99941.94;5111833;28;20348;-72
2023/01/27 03:05:03;;;;;;;74.50;37.78;;;;;;;1.29;100.00;99934.19;5111813;28;20035;-73
2023/01/27 03:07:28;;;;;;;77.35;37.80;;;;;;;1.23;100.00;99965.88;5112085;28;20425;-73
2023/01/27 03:09:53;;;;;;;83.32;38.13;;;;;;;1.40;100.00;99958.09;5111687;28;20076;-73
2023/01/27 03:12:19;;;;;;;91.82;40.25;;;;;;;0.72;100.00;99925.00;5111799;28;20064;-73
2023/01/27 03:20:13;;;;;;;86.45;42.08;;;;;;;1.04;100.00;99941.13;5111720;28;20431;-72
2023/01/27 03:22:38;;;;;;;80.53;37.47;;;;;;;1.17;100.00;99929.97;5111760;28;20127;-73
2023/01/27 03:25:04;;;;;;;97.13;52.08;;;;;;;1.09;100.00;99947.94;5115741;28;20019;-72
2023/01/27 03:27:30;;;;;;;118.65;59.75;;;;;;;1.17;100.00;99966.72;5115729;27;20031;-73
2023/01/27 03:29:55;;;;;;;88.43;44.50;;;;;;;1.33;100.00;99975.22;5115062;28;20111;-73
2023/01/27 03:32:26;;;;;;;81.45;39.85;;;;;;;1.19;100.00;99966.75;5115194;28;20026;-73
2023/01/27 03:34:51;;;;;;;82.95;42.55;;;;;;;1.33;100.00;99972.66;5114892;28;20059;-72
2023/01/27 03:48:17;;;;;;;80.88;40.95;;;;;;;1.27;100.00;99953.88;5114921;28;20104;-73
2023/01/27 03:50:51;;;;;;;74.78;38.28;;;;;;;1.35;100.00;99947.88;5114661;28;20024;-72
2023/01/27 03:53:17;;;;;;;112.30;69.05;;;;;;;1.23;100.00;99937.66;5113430;28;20487;-72
2023/01/27 03:55:43;;;;;;;103.05;55.40;;;;;;;1.35;100.00;99954.69;5114740;28;20031;-73
2023/01/27 03:58:27;;;;;;;86.07;45.03;;;;;;;1.34;100.00;99969.22;5114931;28;20042;-72
2023/01/27 04:00:58;;;;;;;72.60;38.35;;;;;;;1.14;100.00;99938.53;5114415;28;20314;-73
2023/01/27 04:08:56;;;;;;;77.68;38.78;;;;;;;1.32;100.00;99952.16;5114378;28;20049;-72
2023/01/27 04:14:07;;;;;;;78.00;38.78;;;;;;;1.07;100.00;99928.31;5114523;28;20038;-72
2023/01/27 04:16:33;;;;;;;81.55;38.90;;;;;;;0.78;100.00;99902.75;5114408;28;20466;-72
2023/01/27 04:18:58;;;;;;;78.60;39.00;;;;;;;0.96;100.00;99918.06;5114387;28;20076;-72
2023/01/27 04:21:25;;;;;;;85.57;41.65;;;;;;;0.82;100.00;99936.06;5114487;28;20031;-73
2023/01/27 04:23:51;;;;;;;81.97;40.90;;;;;;;0.74;100.00;99953.16;5114030;28;20127;-72
2023/01/27 04:26:17;;;;;;;82.53;40.83;;;;;;;0.98;100.00;99960.81;5114220;28;20051;-72
2023/01/27 04:28:43;;;;;;;85.10;41.78;;;;;;;0.83;100.00;99926.66;5113837;28;20451;-72
2023/01/27 04:31:08;;;;;;;81.63;39.30;;;;;;;0.79;100.00;99928.38;5114082;28;20028;-72
2023/01/27 04:33:33;;;;;;;83.78;41.03;;;;;;;0.86;100.00;99950.59;5114069;28;20168;-72
2023/01/27 04:35:59;;;;;;;80.38;40.33;;;;;;;0.71;100.00;99938.63;5112806;28;20032;-72
2023/01/27 04:38:24;;;;;;;80.28;41.83;;;;;;;0.83;100.00;99937.75;5114340;28;20037;-72
2023/01/27 04:40:49;;;;;;;88.72;42.17;;;;;;;1.03;100.00;99939.44;5113758;28;20024;-73
2023/01/27 04:43:15;;;;;;;84.60;41.45;;;;;;;1.04;100.00;99933.44;5113859;28;20028;-72
2023/01/27 04:45:40;;;;;;;89.50;42.00;;;;;;;1.13;100.00;99946.22;5113698;28;20022;-73
2023/01/27 04:48:05;;;;;;;84.05;40.92;;;;;;;1.21;100.00;99962.44;5114192;27;20051;-73
2023/01/27 04:50:32;;;;;;;80.72;39.38;;;;;;;1.06;100.00;99927.44;5113713;28;20059;-72
2023/01/27 04:52:57;;;;;;;110.18;52.72;;;;;;;1.16;100.00;99961.59;5112950;28;20048;-73
2023/01/27 04:55:22;;;;;;;131.68;60.67;;;;;;;1.13;100.00;99947.06;5113670;28;20117;-73
2023/01/27 04:57:48;;;;;;;104.25;48.97;;;;;;;1.29;100.00;99964.97;5113140;28;20536;-73
2023/01/27 05:00:14;;;;;;;94.07;44.15;;;;;;;1.30;100.00;99959.84;5113687;28;20027;-72
2023/01/27 05:02:39;;;;;;;85.60;40.75;;;;;;;1.26;100.00;99963.28;5113342;28;20031;-73
2023/01/27 05:05:05;;;;;;;108.00;47.75;;;;;;;1.03;100.00;99929.16;5113399;28;20157;-73
2023/01/27 05:07:31;;;;;;;105.00;48.50;;;;;;;1.02;100.00;99942.84;5113305;28;20374;-73
2023/01/27 05:09:56;;;;;;;101.35;46.22;;;;;;;1.02;100.00;99963.38;5113236;28;20034;-73
2023/01/27 05:12:21;;;;;;;96.75;43.65;;;;;;;0.97;100.00;99953.13;5113282;28;20455;-73
2023/01/27 05:14:47;;;;;;;97.47;45.08;;;;;;;0.86;100.00;99950.59;5112922;28;20588;-73
2023/01/27 05:17:12;;;;;;;88.40;42.35;;;;;;;1.17;100.00;99978.69;5113399;28;20027;-73
2023/01/27 05:19:37;;;;;;;89.60;42.45;;;;;;;1.05;100.00;99956.50;5113602;28;20037;-73
2023/01/27 05:22:03;;;;;;;99.80;46.55;;;;;;;1.28;100.00;99988.94;5112874;28;20049;-73
2023/01/27 05:24:28;;;;;;;103.65;48.53;;;;;;;1.03;100.00;99939.44;5113196;28;20026;-73
2023/01/27 05:26:54;;;;;;;89.40;43.25;;;;;;;0.84;100.00;99954.84;5112681;28;20024;-72
2023/01/27 05:29:19;;;;;;;100.47;42.60;;;;;;;0.77;100.00;99963.44;5113131;28;20459;-73
2023/01/27 05:31:44;;;;;;;99.35;44.83;;;;;;;1.03;100.00;99990.72;5113063;28;20031;-73
2023/01/27 05:34:10;;;;;;;93.28;44.42;;;;;;;1.12;100.00;99988.13;5113067;28;20032;-73
2023/01/27 05:36:35;;;;;;;104.32;44.45;;;;;;;0.91;100.00;99940.31;5112929;28;20140;-73
2023/01/27 05:39:00;;;;;;;100.78;45.35;;;;;;;1.22;100.00;99989.78;5112620;28;20039;-72
2023/01/27 05:41:29;;;;;;;95.75;42.97;;;;;;;0.91;100.00;99973.66;5112811;28;20063;-73
2023/01/27 05:43:55;;;;;;;96.68;43.83;;;;;;;1.04;100.00;99972.75;5112271;28;20024;-72
2023/01/27 05:46:26;;;;;;;106.68;46.58;;;;;;;1.08;100.00;99986.44;5112479;28;20528;-72
2023/01/27 05:48:54;;;;;;;109.00;47.00;;;;;;;1.15;100.00;100006.09;5112470;28;20028;-72
2023/01/27 05:51:21;;;;;;;109.10;46.10;;;;;;;0.96;100.00;99984.75;5112671;28;20067;-72
2023/01/27 05:53:47;;;;;;;109.85;45.28;;;;;;;1.12;100.00;100004.38;5112353;28;20103;-72
2023/01/27 05:56:18;;;;;;;109.63;46.00;;;;;;;1.19;100.00;99997.53;5112432;28;20119;-72
2023/01/27 05:58:44;;;;;;;110.95;47.90;;;;;;;1.15;100.00;99975.31;5112378;28;20028;-72
2023/01/27 06:01:12;;;;;;;120.25;48.00;;;;;;;1.35;100.00;100006.88;5112630;28;20072;-72
2023/01/27 06:03:38;;;;;;;114.00;47.00;;;;;;;1.18;100.00;100012.06;5112682;28;20085;-72
2023/01/27 06:06:05;;;;;;;118.03;48.20;;;;;;;1.20;100.00;100015.47;5112221;28;20028;-72
2023/01/27 06:08:31;;;;;;;118.55;49.00;;;;;;;1.02;100.00;99995.00;5112415;28;20585;-72
2023/01/27 06:10:57;;;;;;;114.93;48.50;;;;;;;1.04;100.00;99992.44;5112116;28;20178;-72
2023/01/27 06:13:23;;;;;;;113.80;46.85;;;;;;;1.31;100.00;100014.59;5112519;28;20024;-72
2023/01/27 06:15:49;;;;;;;119.32;46.13;;;;;;;0.87;100.00;99967.66;5112215;28;20028;-72
2023/01/27 06:18:16;;;;;;;123.82;47.35;;;;;;;0.75;100.00;99967.69;5112387;28;20028;-72
2023/01/27 06:20:42;;;;;;;118.75;49.67;;;;;;;1.13;100.00;100010.34;5112307;28;20028;-72
2023/01/27 06:23:09;;;;;;;117.68;47.60;;;;;;;1.25;100.00;100023.16;5112203;28;20086;-72
2023/01/27 06:25:39;;;;;;;129.18;49.72;;;;;;;1.29;100.00;100026.56;5112147;28;20052;-72
2023/01/27 06:28:05;;;;;;;137.77;54.25;;;;;;;1.05;100.00;99991.56;5111960;28;20483;-72
2023/01/27 06:30:32;;;;;;;131.02;50.60;;;;;;;0.75;100.00;100017.25;5112315;28;20024;-72
2023/01/27 06:32:58;;;;;;;124.28;50.95;;;;;;;0.95;100.00;100035.19;5111930;28;20039;-72
2023/01/27 06:35:23;;;;;;;124.32;50.80;;;;;;;1.02;100.00;100035.19;5112245;28;20051;-72
2023/01/27 06:37:50;;;;;;;140.98;56.03;;;;;;;0.97;100.00;100002.72;5111871;28;20028;-72
2023/01/27 06:40:16;;;;;;;208.27;93.18;;;;;;;1.05;100.00;100033.44;5112356;28;20437;-72
2023/01/27 06:42:42;;;;;;;197.10;77.32;;;;;;;0.87;100.00;100013.81;5112027;28;20035;-72
2023/01/27 06:45:09;;;;;;;145.75;56.40;;;;;;;0.75;100.00;100031.78;5111875;28;20411;-72
2023/01/27 06:47:35;;;;;;;151.63;59.67;;;;;;;0.62;100.00;100009.59;5112149;28;20074;-72
2023/01/27 06:50:00;;;;;;;145.73;56.97;;;;;;;0.78;100.00;100016.41;5110479;28;20043;-72
2023/01/27 06:52:25;;;;;;;130.95;50.55;;;;;;;0.57;100.00;100014.72;5111963;28;20539;-72
2023/01/27 06:54:51;;;;;;;134.18;54.17;;;;;;;1.01;100.00;100047.13;5111965;28;20047;-72
2023/01/27 06:57:16;;;;;;;121.00;50.63;;;;;;;0.92;100.00;100027.50;5112164;28;20102;-73
2023/01/27 06:59:41;;;;;;;120.22;50.35;;;;;;;1.10;100.00;100049.72;5115735;28;20115;-72
2023/01/27 07:02:11;;;;;;;136.20;53.40;;;;;;;0.94;100.00;100043.75;5115511;28;20110;-73
2023/01/27 07:04:36;;;;;;;139.50;56.88;;;;;;;0.94;100.00;100018.09;5115838;28;20027;-73
2023/01/27 07:07:02;;;;;;;130.00;54.33;;;;;;;0.88;100.00;100022.38;5115484;27;20424;-73
2023/01/27 07:09:27;;;;;;;119.25;49.35;;;;;;;1.18;100.00;100044.53;5115917;28;20030;-72
2023/01/27 07:11:53;;;;;;;116.85;48.72;;;;;;;1.14;100.00;100022.34;5115575;28;20368;-73
2023/01/27 07:14:18;;;;;;;126.53;52.30;;;;;;;1.40;100.00;100058.19;5115740;28;20031;-73
2023/01/27 07:16:44;;;;;;;124.63;53.38;;;;;;;1.05;100.00;100037.72;5115667;28;20055;-73
2023/01/27 07:19:11;;;;;;;115.03;50.17;;;;;;;1.03;100.00;100062.53;5115223;28;20482;-73
2023/01/27 07:21:37;;;;;;;119.65;52.58;;;;;;;1.11;100.00;100050.56;5115288;28;20031;-73
2023/01/27 07:24:02;;;;;;;107.47;48.47;;;;;;;1.25;100.00;100041.13;5115371;28;20023;-73
2023/01/27 07:26:28;;;;;;;120.88;58.90;;;;;;;1.07;100.00;100029.19;5115535;28;20077;-72
2023/01/27 07:28:54;;;;;;;109.57;46.88;;;;;;;0.81;100.00;100029.22;5115203;27;20068;-73
2023/01/27 07:31:19;;;;;;;112.85;47.33;;;;;;;0.78;100.00;100057.44;5115252;28;20470;-72
2023/01/27 07:33:45;;;;;;;107.85;45.20;;;;;;;0.89;100.00;100057.44;5115347;28;20030;-73
2023/01/27 07:36:10;;;;;;;128.98;53.55;;;;;;;0.67;100.00;100021.53;5114904;28;20039;-72
2023/01/27 07:38:36;;;;;;;131.48;55.83;;;;;;;1.02;100.00;100032.63;5115390;28;20029;-72
2023/01/27 07:41:05;;;;;;;114.05;53.63;;;;;;;0.92;100.00;100062.53;5113764;28;20110;-72
2023/01/27 07:43:31;;;;;;;109.38;48.80;;;;;;;0.79;100.00;100005.28;5115207;28;20111;-72
2023/01/27 07:45:57;;;;;;;103.32;43.13;;;;;;;0.98;100.00;100058.28;5114780;28;20079;-72
2023/01/27 07:48:22;;;;;;;113.28;48.78;;;;;;;1.18;100.00;100060.81;5114964;28;20502;-72
2023/01/27 07:50:48;;;;;;;97.45;42.08;;;;;;;1.08;100.00;100055.69;5114898;28;20059;-75
2023/01/27 07:53:13;;;;;;;95.63;44.05;;;;;;;1.08;100.00;100050.56;5114702;28;20028;-75
2023/01/27 07:55:38;;;;;;;113.50;49.13;;;;;;;1.31;100.00;100055.66;5114940;28;20055;-72
2023/01/27 07:58:04;;;;;;;103.32;44.20;;;;;;;1.12;100.00;100001.81;5115041;28;20463;-74
2023/01/27 08:00:30;;;;;;;108.90;46.25;;;;;;;1.22;100.00;100033.41;5114763;28;20042;-72
2023/01/27 08:02:56;;;;;;;99.63;45.30;;;;;;;1.28;100.00;100056.50;5114479;28;20419;-74
2023/01/27 08:05:22;;;;;;;97.68;44.05;;;;;;;0.93;100.00;100034.34;5115256;27;20107;-74
2023/01/27 08:07:49;;;;;;;108.18;52.20;;;;;;;1.23;100.00;100050.53;5114799;28;20106;-74
2023/01/27 08:10:15;;;;;;;117.63;53.53;;;;;;;1.09;100.00;100030.03;5114168;28;20028;-74
2023/01/27 08:12:42;;;;;;;109.28;54.05;;;;;;;1.31;100.00;100042.84;5114611;28;20032;-74
2023/01/27 08:15:08;;;;;;;103.32;51.10;;;;;;;1.32;100.00;100065.06;5114362;28;20032;-73
2023/01/27 08:17:33;;;;;;;101.43;48.72;;;;;;;1.05;100.00;100043.72;5114449;28;20027;-73
2023/01/27 08:19:58;;;;;;;106.93;46.08;;;;;;;1.10;100.00;100071.94;5114053;28;20032;-73
2023/01/27 08:22:24;;;;;;;114.05;50.05;;;;;;;0.68;100.00;100050.63;5114281;28;20127;-73
2023/01/27 08:24:49;;;;;;;103.05;48.53;;;;;;;0.56;100.00;100048.91;5114490;28;20107;-73
2023/01/27 08:27:16;;;;;;;112.40;49.20;;;;;;;0.58;100.00;100077.06;5114020;28;20119;-74
2023/01/27 08:29:42;;;;;;;139.13;66.03;;;;;;;0.50;100.00;100067.66;5114163;28;20027;-73
2023/01/27 08:32:08;;;;;;;117.38;50.33;;;;;;;0.41;100.00;100065.09;5113868;28;20391;-74
2023/01/27 08:34:33;;;;;;;103.28;45.88;;;;;;;0.46;100.00;100085.59;5113950;28;20387;-73
2023/01/27 08:36:59;;;;;;;103.63;44.13;;;;;;;0.45;100.00;100078.78;5113985;28;20032;-73
2023/01/27 08:39:24;;;;;;;103.70;47.92;;;;;;;0.57;100.00;100090.75;5113862;28;20026;-73
2023/01/27 08:41:49;;;;;;;118.97;51.90;;;;;;;0.30;100.00;100073.66;5114053;28;20024;-73
2023/01/27 08:44:15;;;;;;;112.35;51.72;;;;;;;0.37;100.00;100094.13;5113815;28;20059;-74
2023/01/27 08:46:40;;;;;;;108.50;47.60;;;;;;;0.37;100.00;100060.81;5113889;28;20019;-73
2023/01/27 08:49:06;;;;;;;123.75;50.55;;;;;;;0.58;100.00;100089.91;5113517;28;20479;-73
2023/01/27 08:51:31;;;;;;;120.07;48.80;;;;;;;0.38;100.00;100077.94;5113756;28;20036;-73
2023/01/27 08:53:56;;;;;;;109.65;49.05;;;;;;;0.63;100.00;100072.81;5113679;28;20198;-74
2023/01/27 08:56:22;;;;;;;125.03;53.20;;;;;;;0.73;100.00;100080.50;5112948;28;20031;-74
2023/01/27 08:58:47;;;;;;;117.57;49.65;;;;;;;0.81;100.00;100066.84;5112470;28;20128;-73
2023/01/27 09:01:14;;;;;;;101.57;46.35;;;;;;;0.88;100.00;100094.16;5109574;28;20043;-74
2023/01/27 09:03:39;;;;;;;99.93;42.20;;;;;;;1.04;100.00;100077.91;5112054;28;20045;-74
2023/01/27 09:06:08;;;;;;;104.78;46.45;;;;;;;1.03;100.00;100101.88;5111969;28;20019;-74
2023/01/27 09:08:33;;;;;;;86.45;39.40;;;;;;;0.99;100.00;100077.06;5109986;28;20057;-74
2023/01/27 09:10:59;;;;;;;79.93;37.03;;;;;;;0.93;100.00;100082.22;5112059;28;20032;-74
2023/01/27 09:13:24;;;;;;;86.65;40.35;;;;;;;1.14;100.00;100104.44;5112805;28;20028;-74
2023/01/27 09:15:51;;;;;;;91.80;47.20;;;;;;;1.25;100.00;100116.38;5112930;28;20035;-73
2023/01/27 09:18:16;;;;;;;96.78;46.42;;;;;;;1.46;100.00;100118.06;5112414;28;20098;-73
2023/01/27 09:20:42;;;;;;;104.38;47.35;;;;;;;1.22;100.00;100106.13;5112251;28;20050;-73
2023/01/27 09:23:07;;;;;;;90.47;42.88;;;;;;;1.00;100.00;100096.72;5111800;28;20043;-74
2023/01/27 09:25:32;;;;;;;101.32;43.35;;;;;;;1.37;100.00;100124.94;5113154;28;20459;-74
2023/01/27 09:27:58;;;;;;;82.13;41.70;;;;;;;1.43;100.00;100094.97;5112872;28;20431;-74
2023/01/27 09:30:25;;;;;;;86.97;41.00;;;;;;;1.40;100.00;100104.41;5113053;28;20505;-74
2023/01/27 09:32:51;;;;;;;81.47;40.25;;;;;;;1.35;100.00;100114.66;5112899;28;20024;-74
2023/01/27 09:35:16;;;;;;;95.78;47.25;;;;;;;1.31;100.00;100123.22;5112985;28;20024;-73
2023/01/27 09:37:56;;;;;;;88.65;42.38;;;;;;;1.41;100.00;100124.06;5113072;28;20034;-73
2023/01/27 09:40:52;;;;;;;80.03;39.78;;;;;;;1.22;100.00;100110.38;5111614;28;20383;-74
2023/01/27 09:43:48;;;;;;;86.90;45.13;;;;;;;1.46;100.00;100128.31;5112461;28;20027;-74
2023/01/27 09:46:20;;;;;;;108.30;50.13;;;;;;;1.45;100.00;100116.34;5112092;28;20481;-74
2023/01/27 09:49:00;;;;;;;132.32;55.25;;;;;;;1.26;100.00;100112.09;5112591;28;20440;-74
2023/01/27 09:51:44;;;;;;;98.00;44.33;;;;;;;1.33;100.00;100144.59;5112638;28;20027;-74
2023/01/27 09:54:21;;;;;;;145.48;74.03;;;;;;;1.45;100.00;100146.31;5112552;28;20039;-73
2023/01/27 09:57:07;;;;;;;93.32;44.35;;;;;;;1.32;100.00;100136.91;5112545;28;20483;-73
2023/01/27 09:59:48;;;;;;;92.93;43.67;;;;;;;1.14;100.00;100112.13;5112438;28;20067;-73
2023/01/27 10:02:19;;;;;;;84.43;40.75;;;;;;;1.22;100.00;100138.63;5112223;28;20467;-73
2023/01/27 10:04:55;;;;;;;82.30;38.35;;;;;;;1.20;100.00;100141.19;5112695;28;20031;-74
2023/01/27 10:07:23;;;;;;;77.75;40.30;;;;;;;1.18;100.00;100118.94;5112256;28;20027;-73
2023/01/27 10:10:16;;;;;;;83.40;42.85;;;;;;;1.21;100.00;100132.63;5112459;28;20132;-73
2023/01/27 10:12:47;;;;;;;80.28;39.42;;;;;;;1.23;100.00;100138.63;5112310;28;20471;-73
2023/01/27 10:15:22;;;;;;;77.60;39.40;;;;;;;1.42;100.00;100142.00;5112293;28;20032;-73
2023/01/27 10:18:09;;;;;;;94.85;46.47;;;;;;;1.17;100.00;100132.63;5112439;28;20483;-73
2023/01/27 10:21:00;;;;;;;86.25;41.42;;;;;;;1.04;100.00;100107.84;5112638;28;20471;-73
2023/01/27 10:23:31;;;;;;;83.63;41.53;;;;;;;1.27;100.00;100129.22;5112834;28;20073;-73
2023/01/27 10:26:05;;;;;;;89.28;44.28;;;;;;;1.38;100.00;100130.03;5112190;28;20448;-73
2023/01/27 10:28:31;;;;;;;82.03;41.25;;;;;;;1.35;100.00;100126.63;5112325;28;20035;-73
2023/01/27 10:31:01;;;;;;;86.53;41.80;;;;;;;1.36;100.00;100129.22;5112205;28;20386;-73
2023/01/27 10:33:51;;;;;;;84.72;40.95;;;;;;;1.59;100.00;100126.56;5113840;28;20031;-73
2023/01/27 10:36:35;;;;;;;87.38;43.78;;;;;;;1.47;100.00;100100.94;5073074;28;20040;-73
2023/01/27 10:39:28;;;;;;;93.85;44.25;;;;;;;1.56;100.00;100089.78;5073070;28;20032;-73
2023/01/27 10:42:08;;;;;;;85.13;42.50;;;;;;;1.42;100.00;100124.03;5073178;28;20503;-73
2023/01/27 10:44:49;;;;;;;83.27;40.93;;;;;;;1.56;100.00;100116.34;5073177;28;20054;-73
2023/01/27 10:47:26;;;;;;;95.68;46.30;;;;;;;1.57;100.00;100123.19;5072791;28;20028;-73
2023/01/27 10:50:14;;;;;;;84.85;42.35;;;;;;;1.24;100.00;100109.53;5072933;28;20035;-73
2023/01/27 10:52:46;;;;;;;86.13;39.92;;;;;;;1.27;100.00;100118.09;5073061;28;20108;-73
2023/01/27 10:55:29;;;;;;;88.20;42.33;;;;;;;1.16;100.00;100113.81;5072686;28;20033;-73
2023/01/27 10:58:06;;;;;;;100.65;47.45;;;;;;;1.25;100.00;100123.22;5072832;28;20029;-73
2023/01/27 11:00:34;;;;;;;92.88;44.72;;;;;;;1.28;100.00;100117.25;5072722;28;20419;-73
2023/01/27 11:03:06;;;;;;;84.13;42.10;;;;;;;1.42;100.00;100123.19;5072748;28;20393;-73
2023/01/27 11:05:39;;;;;;;98.53;48.58;;;;;;;1.38;100.00;100118.94;5072638;28;20096;-73
2023/01/27 11:08:11;;;;;;;121.03;63.78;;;;;;;1.35;100.00;100095.81;5072464;28;20025;-73
2023/01/27 11:11:42;;;;;;;105.95;49.17;;;;;;;1.08;100.00;100096.72;5072674;28;20075;-73
2023/01/27 11:13:29;;;;;;;100.22;46.65;;;;;;;1.28;100.00;100117.25;5096578;28;20045;-73
2023/01/27 11:15:56;;;;;;;76.85;37.78;;;;;;;1.08;100.00;100094.16;5115604;28;20031;-73
2023/01/27 11:18:24;;;;;;;81.43;39.35;;;;;;;1.21;100.00;100108.69;5115595;28;20207;-73
2023/01/27 11:20:54;;;;;;;82.97;41.38;;;;;;;0.99;100.00;100098.44;5115505;28;20479;-73
2023/01/27 11:23:26;;;;;;;85.75;41.20;;;;;;;0.96;100.00;100072.78;5115357;28;20048;-73
2023/01/27 11:26:30;;;;;;;78.90;40.70;;;;;;;1.32;100.00;100112.09;5115541;28;20027;-73
2023/01/27 11:29:20;;;;;;;85.85;40.90;;;;;;;1.12;100.00;100112.13;5115501;28;20051;-74
2023/01/27 11:32:11;;;;;;;75.28;38.33;;;;;;;1.20;100.00;100109.56;5115195;28;20031;-73
2023/01/27 11:34:48;;;;;;;81.15;38.53;;;;;;;1.05;100.00;100073.66;5115475;28;20062;-73
2023/01/27 11:37:23;;;;;;;87.40;43.15;;;;;;;1.32;100.00;100104.41;5113899;28;20056;-73
2023/01/27 11:39:49;;;;;;;84.22;41.78;;;;;;;1.56;100.00;100103.50;5115556;28;20023;-73
2023/01/27 11:42:15;;;;;;;77.38;39.60;;;;;;;1.22;100.00;100095.00;5114976;28;20043;-73
2023/01/27 11:44:42;;;;;;;80.65;40.85;;;;;;;1.21;100.00;100077.91;5114719;28;20024;-73
2023/01/27 11:47:21;;;;;;;87.38;46.42;;;;;;;1.25;100.00;100083.00;5115102;28;20411;-73
2023/01/27 11:49:48;;;;;;;112.70;67.80;;;;;;;1.11;100.00;100084.75;5115114;27;20038;-73
2023/01/27 11:52:17;;;;;;;94.72;46.90;;;;;;;1.42;100.00;100084.69;5114618;28;20027;-73